Time;durP1;ratioP1;P1;durP2;ratioP2;P2;SDS_P1;SDS_P2;PMS_P1;PMS_P2;Temp;Humidity;BMP_temperature;BMP_pressure;BME280_temperature;BME280_humidity;BME280_pressure;Samples;Min_cycle;Max_cycle;Signal;HPM_P1;HPM_P2
2023/05/13 00:01:55;;;;;;;8.20;4.60;;;;;;;;;;4923652;29;20031;-72
2023/05/13 00:04:20;;;;;;;7.75;4.75;;;;;;;;;;4920382;29;20500;-72
2023/05/13 00:06:46;;;;;;;6.20;4.77;;;;;;;;;;4921854;29;20043;-71
2023/05/13 00:09:11;;;;;;;8.23;4.90;;;;;;;;;;4921556;29;20125;-72
2023/05/13 00:11:37;;;;;;;8.20;4.60;;;;;;;;;;4924544;29;20779;-72
2023/05/13 00:14:02;;;;;;;8.77;4.97;;;;;;;;;;4919686;29;20158;-71
2023/05/13 00:16:28;;;;;;;10.63;5.10;;;;;;;;;;4925461;29;20030;-72
2023/05/13 00:18:54;;;;;;;13.80;5.20;;;;;;;;;;4925357;29;20460;-72
2023/05/13 00:21:19;;;;;;;6.75;5.03;;;;;;;;;;4922744;29;20728;-71
2023/05/13 00:23:44;;;;;;;8.00;4.67;;;;;;;;;;4906749;29;20028;-71
2023/05/13 00:26:10;;;;;;;7.10;4.70;;;;;;;;;;4923534;29;20988;-70
2023/05/13 00:28:35;;;;;;;9.87;5.23;;;;;;;;;;4920078;29;20301;-69
2023/05/13 00:31:00;;;;;;;6.22;4.60;;;;;;;;;;4910309;29;20281;-71
2023/05/13 00:33:26;;;;;;;7.07;4.93;;;;;;;;;;4923333;29;20090;-70
2023/05/13 00:35:51;;;;;;;8.17;5.23;;;;;;;;;;4923980;29;20277;-70
2023/05/13 00:38:16;;;;;;;8.47;5.50;;;;;;;;;;4926006;29;20499;-71
2023/05/13 00:40:43;;;;;;;9.68;5.18;;;;;;;;;;4908958;29;20285;-71
2023/05/13 00:43:08;;;;;;;7.47;5.20;;;;;;;;;;4922403;29;20083;-72
2023/05/13 00:45:35;;;;;;;9.60;5.17;;;;;;;;;;4925249;29;20027;-73
2023/05/13 00:48:00;;;;;;;7.07;4.90;;;;;;;;;;4920906;29;20294;-72
2023/05/13 00:50:26;;;;;;;7.80;5.25;;;;;;;;;;4910095;29;20926;-72
2023/05/13 00:52:52;;;;;;;7.32;5.05;;;;;;;;;;4922849;29;20487;-71
2023/05/13 00:55:17;;;;;;;6.72;5.28;;;;;;;;;;4922070;29;20036;-72
2023/05/13 00:57:42;;;;;;;6.60;5.03;;;;;;;;;;4907125;29;20034;-72
2023/05/13 01:00:09;;;;;;;7.40;4.67;;;;;;;;;;4924216;29;20479;-72
2023/05/13 01:02:57;;;;;;;6.57;4.95;;;;;;;;;;4922843;29;20914;-70
2023/05/13 01:05:31;;;;;;;8.93;5.30;;;;;;;;;;4846883;29;20052;-71
2023/05/13 01:08:04;;;;;;;5.88;4.78;;;;;;;;;;4846945;29;20041;-71
2023/05/13 01:10:45;;;;;;;6.43;5.00;;;;;;;;;;4850270;29;20461;-71
2023/05/13 01:13:12;;;;;;;7.00;5.10;;;;;;;;;;4839379;29;20658;-72
2023/05/13 01:15:51;;;;;;;7.32;5.22;;;;;;;;;;4853938;29;20085;-70
2023/05/13 01:18:23;;;;;;;7.68;5.68;;;;;;;;;;4856410;29;20033;-70
2023/05/13 01:20:49;;;;;;;10.38;5.07;;;;;;;;;;4849884;29;20129;-70
2023/05/13 01:23:14;;;;;;;9.20;5.15;;;;;;;;;;4847680;29;20078;-70
2023/05/13 01:25:39;;;;;;;6.90;4.82;;;;;;;;;;4846225;29;20025;-70
2023/05/13 01:28:05;;;;;;;6.67;5.10;;;;;;;;;;4846242;29;20068;-71
2023/05/13 01:30:31;;;;;;;7.85;5.45;;;;;;;;;;4849715;29;20084;-70
2023/05/13 01:32:56;;;;;;;8.55;5.13;;;;;;;;;;4847954;29;20139;-71
2023/05/13 01:35:23;;;;;;;7.40;5.30;;;;;;;;;;4846031;29;20053;-70
2023/05/13 01:37:49;;;;;;;8.73;5.00;;;;;;;;;;4829808;29;20032;-72
2023/05/13 01:40:14;;;;;;;10.13;5.65;;;;;;;;;;4846427;29;20120;-70
2023/05/13 01:42:40;;;;;;;9.55;5.28;;;;;;;;;;4890756;29;20052;-70
2023/05/13 01:45:05;;;;;;;7.93;4.80;;;;;;;;;;4920530;29;20036;-69
2023/05/13 01:47:31;;;;;;;7.22;4.97;;;;;;;;;;4909532;29;20035;-70
2023/05/13 01:49:56;;;;;;;7.27;4.87;;;;;;;;;;4910425;29;20024;-71
2023/05/13 01:52:21;;;;;;;9.53;4.97;;;;;;;;;;4909323;29;20039;-70
2023/05/13 01:54:46;;;;;;;7.93;4.90;;;;;;;;;;4918291;29;20317;-70
2023/05/13 01:57:12;;;;;;;8.83;5.20;;;;;;;;;;4922202;29;20738;-71
2023/05/13 01:59:37;;;;;;;8.80;5.10;;;;;;;;;;4922363;29;20436;-71
2023/05/13 02:02:02;;;;;;;8.80;5.47;;;;;;;;;;4921955;29;20079;-70
2023/05/13 02:04:28;;;;;;;8.25;4.82;;;;;;;;;;4923164;29;20123;-70
2023/05/13 02:06:53;;;;;;;7.95;5.32;;;;;;;;;;4923802;29;20107;-70
2023/05/13 02:09:18;;;;;;;7.40;5.10;;;;;;;;;;4920406;29;20042;-71
2023/05/13 02:11:44;;;;;;;8.30;5.17;;;;;;;;;;4920928;29;20278;-71
2023/05/13 02:14:09;;;;;;;9.77;5.43;;;;;;;;;;4921694;29;20047;-71
2023/05/13 02:16:35;;;;;;;6.53;4.70;;;;;;;;;;4911147;29;20028;-71
2023/05/13 02:19:00;;;;;;;8.35;5.10;;;;;;;;;;4925219;29;20278;-70
2023/05/13 02:21:25;;;;;;;9.32;4.78;;;;;;;;;;4924504;29;20034;-70
2023/05/13 02:23:51;;;;;;;7.07;5.30;;;;;;;;;;4928028;29;20062;-70
2023/05/13 02:26:16;;;;;;;7.13;5.30;;;;;;;;;;4925211;29;20042;-70
2023/05/13 02:28:41;;;;;;;8.57;4.95;;;;;;;;;;4924053;29;20059;-70
2023/05/13 02:31:06;;;;;;;6.15;4.70;;;;;;;;;;4922686;29;20046;-70
2023/05/13 02:33:32;;;;;;;9.60;5.17;;;;;;;;;;4924943;29;20020;-71
2023/05/13 02:35:57;;;;;;;7.00;5.10;;;;;;;;;;4925489;29;20328;-70
2023/05/13 02:38:22;;;;;;;7.83;5.50;;;;;;;;;;4924513;29;20286;-71
2023/05/13 02:40:48;;;;;;;8.40;4.80;;;;;;;;;;4925771;29;20070;-71
2023/05/13 02:43:13;;;;;;;7.85;4.88;;;;;;;;;;4924739;29;20054;-73
2023/05/13 02:45:42;;;;;;;6.93;5.07;;;;;;;;;;4921755;29;20071;-72
2023/05/13 02:48:09;;;;;;;;;;;;;;;;;;4923530;29;20209;-72
2023/05/13 02:50:35;;;;;;;7.55;5.15;;;;;;;;;;4925734;29;19986;-72
2023/05/13 02:53:00;;;;;;;8.10;5.65;;;;;;;;;;4924375;29;20489;-72
2023/05/13 02:55:25;;;;;;;7.33;5.20;;;;;;;;;;4923047;29;20467;-72
2023/05/13 02:57:51;;;;;;;10.70;5.32;;;;;;;;;;4910240;29;20501;-72
2023/05/13 03:00:16;;;;;;;6.60;5.07;;;;;;;;;;4926480;29;20032;-71
2023/05/13 03:02:41;;;;;;;6.88;5.03;;;;;;;;;;4923250;29;20561;-71
2023/05/13 03:05:07;;;;;;;8.20;5.00;;;;;;;;;;4926238;29;20585;-71
2023/05/13 03:07:32;;;;;;;8.82;5.20;;;;;;;;;;4924497;29;20344;-71
2023/05/13 03:09:58;;;;;;;7.55;4.90;;;;;;;;;;4923823;29;20038;-71
2023/05/13 03:12:23;;;;;;;6.87;5.20;;;;;;;;;;4925949;29;20047;-71
2023/05/13 03:14:48;;;;;;;7.20;5.03;;;;;;;;;;4910404;29;21040;-72
2023/05/13 03:17:14;;;;;;;8.07;5.65;;;;;;;;;;4922679;29;20040;-72
2023/05/13 03:19:39;;;;;;;8.60;5.70;;;;;;;;;;4923470;29;20044;-71
2023/05/13 03:22:04;;;;;;;7.45;5.68;;;;;;;;;;4926337;29;20031;-73
2023/05/13 03:24:30;;;;;;;9.05;5.82;;;;;;;9.29;nan;100951.81;4924244;29;20031;-72
2023/05/13 03:26:56;;;;;;;7.63;5.80;;;;;;;;;;4924835;29;20035;-72
2023/05/13 03:29:21;;;;;;;8.82;5.32;;;;;;;;;;4928091;29;20565;-72
2023/05/13 03:31:46;;;;;;;7.33;5.43;;;;;;;;;;4929127;29;20367;-72
2023/05/13 03:34:12;;;;;;;8.88;5.40;;;;;;;;;;4926327;29;20271;-73
2023/05/13 03:36:37;;;;;;;7.25;5.32;;;;;;;;;;4925713;29;20079;-72
2023/05/13 03:39:02;;;;;;;9.17;5.60;;;;;;;;;;4925035;29;20475;-72
2023/05/13 03:41:27;;;;;;;7.85;5.43;;;;;;;;;;4923004;29;20058;-72
2023/05/13 03:43:53;;;;;;;10.40;6.03;;;;;;;;;;4922177;29;20839;-72
2023/05/13 03:46:18;;;;;;;9.68;5.20;;;;;;;;;;4927313;29;20277;-72
2023/05/13 03:48:44;;;;;;;7.35;5.20;;;;;;;;;;4920202;29;20477;-72
2023/05/13 03:51:09;;;;;;;7.80;5.13;;;;;;;;;;4922393;29;20035;-72
2023/05/13 03:53:34;;;;;;;12.07;5.97;;;;;;;;;;4922843;29;20035;-72
2023/05/13 03:55:59;;;;;;;7.53;5.60;;;;;;;;;;4918561;29;20282;-72
2023/05/13 03:58:25;;;;;;;7.07;5.13;;;;;;;;;;4908256;29;20415;-72
2023/05/13 04:00:50;;;;;;;9.17;5.30;;;;;;;;;;4921149;29;20024;-72
2023/05/13 04:03:16;;;;;;;8.37;5.70;;;;;;;;;;4924928;29;20377;-72
2023/05/13 04:05:41;;;;;;;10.70;5.72;;;;;;;;;;4924661;29;20031;-71
2023/05/13 04:08:06;;;;;;;9.82;4.93;;;;;;;;;;4925232;29;20028;-70
2023/05/13 04:10:32;;;;;;;7.90;5.20;;;;;;;;;;4924883;29;20474;-71
2023/05/13 04:12:57;;;;;;;6.97;5.22;;;;;;;;;;4910303;29;20537;-70
2023/05/13 04:15:22;;;;;;;8.37;5.33;;;;;;;;;;4922566;29;20110;-71
2023/05/13 04:17:48;;;;;;;11.57;5.70;;;;;;;;;;4923008;29;20277;-72
2023/05/13 04:20:13;;;;;;;10.67;6.00;;;;;;;;;;4911526;29;20973;-72
2023/05/13 04:22:38;;;;;;;8.63;5.15;;;;;;;;;;4907016;29;20339;-72
2023/05/13 04:25:04;;;;;;;6.83;5.17;;;;;;;;;;4923883;29;20057;-72
2023/05/13 04:27:29;;;;;;;8.73;5.93;;;;;;;;;;4922094;29;20387;-72
2023/05/13 04:29:54;;;;;;;12.40;6.27;;;;;;;;;;4919429;29;20058;-72
2023/05/13 04:32:20;;;;;;;8.73;6.43;;;;;;;;;;4923746;29;20374;-71
2023/05/13 04:34:48;;;;;;;8.63;5.90;;;;;;;;;;4921714;29;20032;-72
2023/05/13 04:37:14;;;;;;;10.40;5.95;;;;;;;;;;4923323;29;20151;-72
2023/05/13 04:39:40;;;;;;;9.85;5.78;;;;;;;;;;4924030;29;20091;-71
2023/05/13 04:42:05;;;;;;;8.13;6.00;;;;;;;;;;4926243;29;20027;-72
2023/05/13 04:44:32;;;;;;;7.97;5.15;;;;;;;;;;4922021;29;20065;-71
2023/05/13 04:46:57;;;;;;;9.32;5.90;;;;;;;;;;4922565;29;20034;-72
2023/05/13 04:49:22;;;;;;;8.30;5.78;;;;;;;;;;4910994;29;20028;-71
2023/05/13 04:51:47;;;;;;;8.93;5.77;;;;;;;;;;4909550;29;20089;-71
2023/05/13 04:54:13;;;;;;;11.77;6.30;;;;;;;;;;4925116;29;21354;-71
2023/05/13 04:56:38;;;;;;;10.47;6.27;;;;;;;;;;4909756;29;20371;-72
2023/05/13 04:59:11;;;;;;;9.98;6.15;;;;;;;;;;5080864;27;20986;-72
2023/05/13 05:01:36;;;;;;;15.43;6.45;;;;;;;;;;5071874;28;20068;-70
2023/05/13 05:04:01;;;;;;;10.43;6.13;;;;;;;;;;5073598;28;20037;-71
2023/05/13 05:06:27;;;;;;;12.97;6.13;;;;;;;;;;5072939;28;20285;-70
2023/05/13 05:08:52;;;;;;;9.02;6.20;;;;;;;;;;5072883;28;20277;-70
2023/05/13 05:11:18;;;;;;;12.68;6.38;;;;;;;;;;5074503;28;20028;-70
2023/05/13 05:13:43;;;;;;;8.30;6.80;;;;;;;;;;5076117;28;20036;-71
2023/05/13 05:16:08;;;;;;;10.07;6.20;;;;;;;;;;5070777;28;20025;-71
2023/05/13 05:18:39;;;;;;;8.68;6.50;;;;;;;;;;5073477;28;20281;-71
2023/05/13 05:21:05;;;;;;;9.35;6.43;;;;;;;;;;5067424;28;20028;-71
2023/05/13 05:23:30;;;;;;;11.77;6.88;;;;;;;;;;5071034;28;20126;-71
2023/05/13 05:25:55;;;;;;;10.83;6.83;;;;;;;;;;5073248;28;20028;-72
2023/05/13 05:28:21;;;;;;;10.35;6.97;;;;;;;;;;5074524;28;20143;-71
2023/05/13 05:30:46;;;;;;;9.20;6.50;;;;;;;;;;5075528;28;20020;-71
2023/05/13 05:33:11;;;;;;;9.57;7.10;;;;;;;;;;5073805;28;20273;-71
2023/05/13 05:35:37;;;;;;;9.07;6.60;;;;;;;;;;5074104;28;20021;-72
2023/05/13 05:38:06;;;;;;;11.18;6.55;;;;;;;;;;5070403;28;20541;-72
2023/05/13 05:40:32;;;;;;;10.88;6.30;;;;;;;;;;5071326;28;20064;-71
2023/05/13 05:42:57;;;;;;;11.13;6.72;;;;;;;;;;5078393;28;20087;-71
2023/05/13 05:45:22;;;;;;;9.43;6.90;;;;;;;;;;5088195;28;20092;-70
2023/05/13 05:47:47;;;;;;;8.80;6.50;;;;;;;;;;5086092;28;20278;-70
2023/05/13 05:50:13;;;;;;;11.07;6.57;;;;;;;;;;5092531;28;20285;-71
2023/05/13 05:52:38;;;;;;;10.50;6.60;;;;;;;;;;5100956;28;20058;-70
2023/05/13 05:55:05;;;;;;;11.20;7.20;;;;;;;;;;5078621;28;20071;-70
2023/05/13 05:57:30;;;;;;;12.65;6.68;;;;;;;;;;5073638;28;20305;-70
2023/05/13 05:59:55;;;;;;;19.57;7.33;;;;;;;;;;5074605;28;20431;-70
2023/05/13 06:02:20;;;;;;;12.07;7.20;;;;;;;;;;5071622;28;20086;-71
2023/05/13 06:04:46;;;;;;;10.75;7.10;;;;;;;;;;5075528;28;20024;-71
2023/05/13 06:07:12;;;;;;;10.40;7.47;;;;;;;;;;5073426;28;20035;-72
2023/05/13 06:09:37;;;;;;;11.85;7.63;;;;;;;;;;5080701;28;20056;-71
2023/05/13 06:12:02;;;;;;;10.97;7.33;;;;;;;;;;5060252;28;20569;-72
2023/05/13 06:14:27;;;;;;;10.70;7.53;;;;;;;;;;5059692;28;20281;-72
2023/05/13 06:16:53;;;;;;;11.30;8.13;;;;;;;;;;5061933;28;20025;-72
2023/05/13 06:19:18;;;;;;;11.55;7.82;;;;;;;;;;5074928;28;20028;-72
2023/05/13 06:21:43;;;;;;;9.87;7.03;;;;;;;;;;5060270;28;20436;-71
2023/05/13 06:24:09;;;;;;;11.20;7.95;;;;;;;;;;5072486;28;20293;-71
2023/05/13 06:26:34;;;;;;;12.35;7.85;;;;;;;;;;5062159;28;20054;-67
2023/05/13 06:29:00;;;;;;;14.13;7.97;;;;;;;;;;5058390;28;20105;-70
2023/05/13 06:31:25;;;;;;;10.13;7.13;;;;;;;;;;5059666;28;20115;-68
2023/05/13 06:33:50;;;;;;;12.40;7.00;;;;;;;;;;5060600;28;20290;-72
2023/05/13 06:36:16;;;;;;;11.43;6.73;;;;;;;;;;5069627;28;20020;-71
2023/05/13 06:38:41;;;;;;;9.82;7.00;;;;;;;;;;5059666;28;20274;-71
2023/05/13 06:41:06;;;;;;;9.53;7.57;;;;;;;;;;5076254;28;20038;-71
2023/05/13 06:43:31;;;;;;;12.07;7.43;;;;;;;;;;5073085;28;20041;-74
2023/05/13 06:45:57;;;;;;;9.63;7.20;;;;;;;;;;5059865;28;20021;-72
2023/05/13 06:48:22;;;;;;;12.37;6.80;;;;;;;;;;5059915;28;20505;-71
2023/05/13 06:50:48;;;;;;;11.18;6.95;;;;;;;;;;5060728;28;20277;-71
2023/05/13 06:53:13;;;;;;;8.20;6.82;;;;;;;;;;5053458;28;20040;-71
2023/05/13 06:55:40;;;;;;;13.98;7.00;;;;;;;;;;5060420;28;20115;-72
2023/05/13 06:58:08;;;;;;;9.73;7.00;;;;;;;;;;5058939;28;20115;-71
2023/05/13 07:00:37;;;;;;;10.38;7.13;;;;;;;;;;5072409;28;20048;-70
2023/05/13 07:03:03;;;;;;;12.38;7.13;;;;;;;;;;5060118;28;20076;-70
2023/05/13 07:05:29;;;;;;;11.35;6.95;;;;;;;;;;5071810;28;20033;-71
2023/05/13 07:07:54;;;;;;;8.55;6.63;;;;;;;;;;5058681;28;20497;-73
2023/05/13 07:10:19;;;;;;;12.77;7.03;;;;;;;;;;5068513;28;20036;-73
2023/05/13 07:12:45;;;;;;;9.20;7.03;;;;;;;;;;5065429;28;20028;-73
2023/05/13 07:15:10;;;;;;;11.45;7.22;;;;;;;;;;5056694;28;20043;-73
2023/05/13 07:17:35;;;;;;;11.23;7.30;;;;;;;;;;5058235;28;20028;-72
2023/05/13 07:20:01;;;;;;;12.43;7.40;;;;;;;;;;5057251;28;20098;-73
2023/05/13 07:22:26;;;;;;;11.95;7.47;;;;;;;;;;5042620;28;20068;-73
2023/05/13 07:24:52;;;;;;;10.18;7.50;;;;;;;;;;5056702;28;20029;-72
2023/05/13 07:27:17;;;;;;;10.90;7.47;;;;;;;;;;5056876;28;20028;-71
2023/05/13 07:29:42;;;;;;;12.07;7.67;;;;;;;;;;5058641;28;20386;-73
2023/05/13 07:32:07;;;;;;;12.00;7.83;;;;;;;;;;5056894;28;20292;-72
2023/05/13 07:34:33;;;;;;;9.40;7.10;;;;;;;;;;5057651;28;20794;-73
2023/05/13 07:36:58;;;;;;;8.73;6.57;;;;;;;;;;5056159;28;20284;-73
2023/05/13 07:39:24;;;;;;;9.00;6.68;;;;;;;;;;5055043;28;20886;-73
2023/05/13 07:41:49;;;;;;;9.13;6.47;;;;;;;;;;5056558;28;20131;-72
2023/05/13 07:44:14;;;;;;;9.50;6.83;;;;;;;;;;5055862;28;20033;-72
2023/05/13 07:46:40;;;;;;;11.67;6.80;;;;;;;;;;5057158;28;20281;-72
2023/05/13 07:49:07;;;;;;;10.45;6.95;;;;;;;;;;5063169;28;20334;-73
2023/05/13 07:51:32;;;;;;;12.98;7.25;;;;;;;;;;5057101;28;20037;-72
2023/05/13 07:53:58;;;;;;;9.75;6.78;;;;;;;;;;5058101;28;20031;-73
2023/05/13 07:56:23;;;;;;;13.03;7.07;;;;;;;;;;5055748;28;20021;-72
2023/05/13 07:58:49;;;;;;;10.38;6.85;;;;;;;;;;5056721;28;20156;-72
2023/05/13 08:01:14;;;;;;;11.70;6.72;;;;;;;;;;5054222;28;20033;-72
2023/05/13 08:03:40;;;;;;;10.60;6.97;;;;;;;;;;5054069;28;20025;-72
2023/05/13 08:06:05;;;;;;;9.68;6.22;;;;;;;;;;5054477;28;20064;-70
2023/05/13 08:08:31;;;;;;;9.20;7.05;;;;;;;;;;5057680;28;20043;-73
2023/05/13 08:10:56;;;;;;;9.48;6.38;;;;;;;;;;5060858;28;20111;-73
2023/05/13 08:13:21;;;;;;;8.63;6.43;;;;;;;;;;5057412;28;20495;-70
2023/05/13 08:15:46;;;;;;;9.30;6.28;;;;;;;;;;5057703;28;20429;-72
2023/05/13 08:18:12;;;;;;;7.80;5.65;;;;;;;;;;5060936;28;20025;-70
2023/05/13 08:20:37;;;;;;;9.07;5.30;;;;;;;;;;5067353;28;20033;-70
2023/05/13 08:23:02;;;;;;;10.80;5.33;;;;;;;;;;5060381;28;20028;-71
2023/05/13 08:25:27;;;;;;;10.33;5.70;;;;;;;;;;5078394;28;20277;-70
2023/05/13 08:27:53;;;;;;;7.53;5.57;;;;;;;;;;5060898;28;20285;-68
2023/05/13 08:30:18;;;;;;;7.40;5.50;;;;;;;;;;5055966;28;20029;-71
2023/05/13 08:32:44;;;;;;;8.05;5.75;;;;;;;;;;5052225;28;20081;-71
2023/05/13 08:35:09;;;;;;;8.30;6.25;;;;;;;;;;5055796;28;20028;-68
2023/05/13 08:37:34;;;;;;;10.07;5.90;;;;;;;;;;5055015;28;20056;-72
2023/05/13 08:40:00;;;;;;;6.95;5.60;;;;;;;;;;5057155;28;20686;-70
2023/05/13 08:42:27;;;;;;;6.85;5.32;;;;;;;;;;5056662;28;20044;-70
2023/05/13 08:44:53;;;;;;;7.25;5.18;;;;;;;;;;5057761;28;20501;-73
2023/05/13 08:47:25;;;;;;;6.30;5.00;;;;;;;;;;5058252;28;20041;-71
2023/05/13 08:49:50;;;;;;;7.70;5.05;;;;;;;;;;5068579;28;20033;-74
2023/05/13 08:52:17;;;;;;;9.38;5.10;;;;;;;;;;5054887;28;20033;-74
2023/05/13 08:54:43;;;;;;;6.30;4.88;;;;;;;;;;5057656;28;20037;-72
2023/05/13 08:57:08;;;;;;;7.55;4.82;;;;;;;;;;5041194;28;20051;-70
2023/05/13 08:59:33;;;;;;;8.37;5.10;;;;;;;;;;5056268;28;20084;-72
2023/05/13 09:02:02;;;;;;;5.93;4.90;;;;;;;;;;5054913;28;20313;-73
2023/05/13 09:04:27;;;;;;;10.23;5.13;;;;;;;;;;5056575;28;20066;-73
2023/05/13 09:06:52;;;;;;;8.18;5.35;;;;;;;;;;5053284;28;20029;-73
2023/05/13 09:09:18;;;;;;;7.83;5.23;;;;;;;;;;5056752;28;20390;-72
2023/05/13 09:11:45;;;;;;;8.13;5.38;;;;;;;;;;5066196;28;20047;-68
2023/05/13 09:14:12;;;;;;;9.88;4.93;;;;;;;;;;5054673;28;20024;-75
2023/05/13 09:16:38;;;;;;;7.40;4.65;;;;;;;;;;5057271;28;20037;-67
2023/05/13 09:19:05;;;;;;;10.55;6.88;;;;;;;;;;5057093;28;20069;-70
2023/05/13 09:21:31;;;;;;;9.65;5.53;;;;;;;;;;5056797;28;20547;-68
2023/05/13 09:24:17;;;;;;;8.63;5.18;;;;;;;;;;5054785;28;20064;-70
2023/05/13 09:26:42;;;;;;;6.30;4.85;;;;;;;;;;5056165;28;20426;-74
2023/05/13 09:29:13;;;;;;;6.32;5.05;;;;;;;;;;5059444;28;20024;-70
2023/05/13 09:31:38;;;;;;;9.02;4.97;;;;;;;;;;5057126;28;20052;-70
2023/05/13 09:34:04;;;;;;;7.33;4.57;;;;;;;;;;5057429;28;20061;-69
2023/05/13 09:36:29;;;;;;;5.87;4.63;;;;;;;;;;5056130;28;20643;-70
2023/05/13 09:38:54;;;;;;;6.97;4.80;;;;;;;;;;5052986;28;20123;-71
2023/05/13 09:41:20;;;;;;;7.15;4.63;;;;;;;;;;5053405;28;20453;-71
2023/05/13 09:43:46;;;;;;;7.20;4.60;;;;;;;;;;5057198;28;20025;-70
2023/05/13 09:46:11;;;;;;;7.30;4.57;;;;;;;;;;5058366;28;20120;-66
2023/05/13 09:48:41;;;;;;;8.18;4.10;;;;;;;;;;5058064;28;20100;-69
2023/05/13 09:51:07;;;;;;;8.13;4.35;;;;;;;;;;5059451;28;20086;-69
2023/05/13 09:53:32;;;;;;;7.20;4.38;;;;;;;;;;5061414;28;20071;-69
2023/05/13 09:55:59;;;;;;;7.13;3.77;;;;;;;;;;5057593;28;20052;-68
2023/05/13 09:58:26;;;;;;;11.13;4.30;;;;;;;;;;5057400;28;20285;-68
2023/05/13 10:00:52;;;;;;;5.00;3.95;;;;;;;;;;5058757;28;20599;-68
2023/05/13 10:03:17;;;;;;;5.13;4.00;;;;;;;;;;5059650;28;20037;-68
2023/05/13 10:05:43;;;;;;;6.13;3.85;;;;;;;;;;5057415;28;20052;-69
2023/05/13 10:08:09;;;;;;;5.63;3.75;;;;;;;;;;5059044;28;20398;-70
2023/05/13 10:10:35;;;;;;;5.35;3.88;;;;;;;;;;5058545;28;20506;-70
2023/05/13 10:13:11;;;;;;;6.10;3.83;;;;;;;;;;5058679;28;20044;-73
2023/05/13 10:15:41;;;;;;;4.95;3.67;;;;;;;;;;5059320;28;20029;-69
2023/05/13 10:18:06;;;;;;;6.88;3.67;;;;;;;;;;5059336;28;20491;-69
2023/05/13 10:20:32;;;;;;;7.95;3.67;;;;;;;;;;5058720;28;20040;-69
2023/05/13 10:23:00;;;;;;;6.32;3.50;;;;;;;;;;5059597;28;20374;-70
2023/05/13 10:25:26;;;;;;;5.47;3.70;;;;;;;;;;5056957;28;20025;-69
2023/05/13 10:27:51;;;;;;;6.25;3.20;;;;;;;;;;5069854;28;20037;-68
2023/05/13 10:30:17;;;;;;;5.13;3.63;;;;;;;;;;5058438;28;20079;-69
2023/05/13 10:32:43;;;;;;;4.97;3.47;;;;;;;;;;5057570;28;20029;-72
2023/05/13 10:35:12;;;;;;;7.47;3.73;;;;;;;;;;5060730;28;20486;-72
2023/05/13 10:37:56;;;;;;;7.45;3.85;;;;;;;;;;5074289;28;20285;-72
2023/05/13 10:40:30;;;;;;;5.13;3.60;;;;;;;;;;5066351;28;20033;-71
2023/05/13 10:42:58;;;;;;;6.00;3.33;;;;;;;;;;5060939;28;20107;-73
2023/05/13 10:45:27;;;;;;;6.80;4.07;;;;;;;;;;5060006;28;20033;-70
2023/05/13 10:47:53;;;;;;;5.00;3.50;;;;;;;;;;5061691;28;20060;-70
2023/05/13 10:50:25;;;;;;;4.05;3.42;;;;;;;;;;5060721;28;20036;-69
2023/05/13 10:52:53;;;;;;;6.97;3.80;;;;;;;;;;5058899;28;20028;-65
2023/05/13 10:55:19;;;;;;;7.18;3.80;;;;;;;;;;5060733;28;20033;-70
2023/05/13 10:58:14;;;;;;;4.82;3.45;;;;;;;;;;5063052;28;20037;-70
2023/05/13 11:00:40;;;;;;;4.20;3.30;;;;;;;;;;5058825;28;20416;-69
2023/05/13 11:03:08;;;;;;;6.20;3.28;;;;;;;;;;5059905;28;20025;-69
2023/05/13 11:05:34;;;;;;;5.80;4.20;;;;;;;;;;5062347;28;20033;-70
2023/05/13 11:07:59;;;;;;;7.20;4.75;;;;;;;;;;5058808;28;20047;-71
2023/05/13 11:10:31;;;;;;;7.90;4.00;;;;;;;;;;5054892;28;20356;-72
2023/05/13 11:13:16;;;;;;;7.28;4.20;;;;;;;;;;5059637;28;20035;-71
2023/05/13 11:15:48;;;;;;;6.15;3.28;;;;;;;;;;5058944;28;20123;-71
2023/05/13 11:18:13;;;;;;;6.78;4.05;;;;;;;;;;5061772;28;20024;-72
2023/05/13 11:20:39;;;;;;;9.45;3.90;;;;;;;;;;5064368;28;20029;-71
2023/05/13 11:23:04;;;;;;;6.45;3.55;;;;;;;;;;5068692;28;20638;-70
2023/05/13 11:25:29;;;;;;;7.28;3.83;;;;;;;;;;5063371;28;20025;-71
2023/05/13 11:27:55;;;;;;;4.17;3.10;;;;;;;;;;5058576;28;20542;-71
2023/05/13 11:30:25;;;;;;;6.32;2.85;;;;;;;;;;5058885;28;20307;-69
2023/05/13 11:32:54;;;;;;;2.92;2.60;;;;;;;;;;5056018;28;20569;-72
2023/05/13 11:35:30;;;;;;;6.75;3.13;;;;;;;;;;5056182;28;20028;-69
2023/05/13 11:37:57;;;;;;;4.07;2.85;;;;;;;;;;5057298;28;20486;-69
2023/05/13 11:40:26;;;;;;;5.75;3.20;;;;;;;;;;5056172;28;20060;-71
2023/05/13 11:42:52;;;;;;;4.38;3.22;;;;;;;;;;5055012;28;20102;-72
2023/05/13 11:45:17;;;;;;;5.60;3.20;;;;;;;;;;5056307;28;20064;-73
2023/05/13 11:47:43;;;;;;;3.72;2.60;;;;;;;;;;5058515;28;20028;-72
2023/05/13 11:50:18;;;;;;;6.30;3.17;;;;;;;;;;5056349;28;20418;-73
2023/05/13 11:52:43;;;;;;;4.03;3.10;;;;;;;;;;5057297;28;20035;-73
2023/05/13 11:55:09;;;;;;;5.53;3.13;;;;;;;;;;5056263;28;20032;-73
2023/05/13 11:57:35;;;;;;;3.53;2.77;;;;;;;;;;5056076;28;20145;-73
2023/05/13 12:00:04;;;;;;;7.80;3.80;;;;;;;;;;5055262;28;20284;-73
2023/05/13 12:02:37;;;;;;;6.90;3.63;;;;;;;;;;5055275;28;20032;-73
2023/05/13 12:05:03;;;;;;;7.22;3.20;;;;;;;;;;5058105;28;20041;-74
2023/05/13 12:07:29;;;;;;;6.82;4.30;;;;;;;;;;5055408;28;20467;-72
2023/05/13 12:09:56;;;;;;;6.60;4.28;;;;;;;;;;5055405;28;20033;-72
2023/05/13 12:12:21;;;;;;;5.28;3.10;;;;;;;;;;5058607;28;20473;-74
2023/05/13 12:14:49;;;;;;;4.90;4.10;;;;;;;;;;5060490;28;20143;-73
2023/05/13 12:17:15;;;;;;;8.23;4.00;;;;;;;;;;5054536;28;20112;-74
2023/05/13 12:19:57;;;;;;;10.63;7.72;;;;;;;;;;5055551;28;20178;-74
2023/05/13 12:22:22;;;;;;;11.98;7.53;;;;;;;;;;5069902;28;20047;-68
2023/05/13 12:24:47;;;;;;;4.47;3.37;;;;;;;;;;5073400;28;20025;-68
2023/05/13 12:27:13;;;;;;;5.37;3.30;;;;;;;;;;5054032;28;20270;-68
2023/05/13 12:29:39;;;;;;;6.47;3.60;;;;;;;;;;5057716;28;20299;-68
2023/05/13 12:32:04;;;;;;;7.63;3.53;;;;;;;;;;5059790;28;20502;-67
2023/05/13 12:34:31;;;;;;;8.18;5.38;;;;;;;;;;5056561;28;20033;-69
2023/05/13 12:37:07;;;;;;;8.95;5.47;;;;;;;;;;5058719;28;20037;-69
2023/05/13 12:39:32;;;;;;;6.57;3.75;;;;;;;;;;5058352;28;20044;-70
2023/05/13 12:41:58;;;;;;;6.97;3.10;;;;;;;;;;5057791;28;20036;-69
2023/05/13 12:44:24;;;;;;;6.05;3.70;;;;;;;;;;5057809;28;20028;-70
2023/05/13 12:46:54;;;;;;;5.50;2.83;;;;;;;;;;5052965;28;20029;-72
2023/05/13 12:49:19;;;;;;;4.95;3.08;;;;;;;;;;5057342;28;20048;-71
2023/05/13 12:51:44;;;;;;;9.43;2.90;;;;;;;;;;5055893;28;20495;-71
2023/05/13 12:54:10;;;;;;;4.03;2.60;;;;;;;;;;5057563;28;20325;-73
2023/05/13 12:56:36;;;;;;;5.05;2.70;;;;;;;;;;5070401;28;20033;-68
2023/05/13 12:59:01;;;;;;;4.32;2.67;;;;;;;;;;5056145;28;20048;-71
2023/05/13 13:01:27;;;;;;;7.38;2.63;;;;;;;;;;5071484;28;20028;-71
2023/05/13 13:03:52;;;;;;;6.03;3.10;;;;;;;;;;5053621;28;20029;-71
2023/05/13 13:06:17;;;;;;;5.40;2.90;;;;;;;;;;5070389;28;20288;-72
2023/05/13 13:08:43;;;;;;;7.53;2.63;;;;;;;18.25;nan;100877.88;5054302;28;20047;-72
2023/05/13 13:11:08;;;;;;;5.75;2.75;;;;;;;;;;5057400;28;20278;-68
2023/05/13 13:13:33;;;;;;;3.83;2.63;;;;;;;;;;5054630;28;20470;-69
2023/05/13 13:15:59;;;;;;;5.20;2.73;;;;;;;;;;5058212;28;20123;-68
2023/05/13 13:18:25;;;;;;;3.22;2.45;;;;;;;;;;5057055;28;20074;-69
2023/05/13 13:20:50;;;;;;;8.75;2.90;;;;;;;;;;5058972;28;20033;-69
2023/05/13 13:23:16;;;;;;;8.48;2.70;;;;;;;;;;5063407;28;20031;-69
2023/05/13 13:25:41;;;;;;;4.25;2.85;;;;;;;;;;5060673;28;20367;-69
2023/05/13 13:28:07;;;;;;;4.23;2.43;;;;;;;;;;5060297;28;20037;-69
2023/05/13 13:30:32;;;;;;;8.10;2.47;;;;;;;;;;5055589;28;20040;-70
2023/05/13 13:32:57;;;;;;;5.67;2.87;;;;;;;;;;5059286;28;20289;-71
2023/05/13 13:35:22;;;;;;;6.32;2.70;;;;;;;;;;5058802;28;20296;-69
2023/05/13 13:37:48;;;;;;;4.60;2.50;;;;;;;;;;5059102;28;20423;-70
2023/05/13 13:40:13;;;;;;;4.30;3.33;;;;;;;;;;5057245;28;20032;-69
2023/05/13 13:42:38;;;;;;;4.45;2.72;;;;;;;18.56;nan;100905.38;5061838;28;20082;-72
2023/05/13 13:45:04;;;;;;;5.32;2.70;;;;;;;;;;5073305;28;20043;-71
2023/05/13 13:47:29;;;;;;;6.20;2.50;;;;;;;;;;5059302;28;20027;-71
2023/05/13 13:49:54;;;;;;;3.97;2.60;;;;;;;;;;5070335;28;20035;-69
2023/05/13 13:52:21;;;;;;;8.17;3.10;;;;;;;18.47;nan;100862.44;5060133;28;20028;-71
2023/05/13 13:54:47;;;;;;;6.97;2.90;;;;;;;;;;5058013;28;20278;-71
2023/05/13 13:57:12;;;;;;;5.55;2.85;;;;;;;;;;5065068;28;20063;-68
2023/05/13 13:59:38;;;;;;;6.53;2.75;;;;;;;18.65;nan;100910.97;5061517;28;20040;-70
2023/05/13 14:02:03;;;;;;;4.75;2.90;;;;;;;;;;5062089;28;20119;-72
2023/05/13 14:04:29;;;;;;;3.88;2.42;;;;;;;;;;5060509;28;20025;-72
2023/05/13 14:06:55;;;;;;;6.60;3.55;;;;;;;;;;5062333;28;20135;-71
2023/05/13 14:09:20;;;;;;;5.70;2.20;;;;;;;;;;5064526;28;20024;-70
2023/05/13 14:11:46;;;;;;;4.70;2.45;;;;;;;;;;5063790;28;20136;-71
2023/05/13 14:14:11;;;;;;;4.45;2.28;;;;;;;;;;5076835;28;20478;-69
2023/05/13 14:16:36;;;;;;;4.18;2.50;;;;;;;;;;5065708;28;20090;-70
2023/05/13 14:19:02;;;;;;;3.20;2.40;;;;;;;18.60;nan;100924.31;5061418;28;20501;-70
2023/05/13 14:21:27;;;;;;;8.57;2.70;;;;;;;18.70;nan;100889.66;5058243;28;20280;-69
2023/05/13 14:23:52;;;;;;;4.82;2.25;;;;;;;18.69;nan;100893.38;5056589;28;20063;-69
2023/05/13 14:26:18;;;;;;;4.45;2.35;;;;;;;;;;5062769;28;20046;-71
2023/05/13 14:28:44;;;;;;;4.38;2.53;;;;;;;18.68;nan;100903.25;5059350;28;20031;-71
2023/05/13 14:31:09;;;;;;;6.43;2.42;;;;;;;;;;5059760;28;20422;-71